createdAt,value
2023-04-10T00:02:04.998Z,8.94
2023-04-10T00:04:40.927Z,8.92
2023-04-10T00:07:12.168Z,8.91
2023-04-10T00:09:41.203Z,8.91
2023-04-10T00:12:18.172Z,8.92
2023-04-10T00:14:51.706Z,8.92
2023-04-10T00:17:23.042Z,8.92
2023-04-10T00:19:51.958Z,8.92
2023-04-10T00:22:27.123Z,8.93
2023-04-10T00:24:56.101Z,8.95
2023-04-10T00:27:27.400Z,8.98
2023-04-10T00:29:56.283Z,8.99
2023-04-10T00:32:25.914Z,8.99
2023-04-10T00:34:58.662Z,8.98
2023-04-10T00:37:27.944Z,8.98
2023-04-10T00:39:56.686Z,8.99
2023-04-10T00:42:26.633Z,9.01
2023-04-10T00:44:55.411Z,9.02
2023-04-10T00:47:27.802Z,9.02
2023-04-10T00:49:57.534Z,9.03
2023-04-10T00:52:26.620Z,9.03
2023-04-10T00:54:55.995Z,9.01
2023-04-10T00:57:25.049Z,9.00
2023-04-10T00:59:56.563Z,8.99
2023-04-10T01:02:26.467Z,9.00
2023-04-10T01:04:56.045Z,9.00
2023-04-10T01:07:28.154Z,9.02
2023-04-10T01:10:09.186Z,9.03
2023-04-10T01:12:38.398Z,9.03
2023-04-10T01:15:11.067Z,9.04
2023-04-10T01:17:55.641Z,9.02
2023-04-10T01:20:25.249Z,9.01
2023-04-10T01:22:55.703Z,9.01
2023-04-10T01:25:30.424Z,9.00
2023-04-10T01:28:06.346Z,9.00
2023-04-10T01:30:35.982Z,8.98
2023-04-10T01:33:06.213Z,8.97
2023-04-10T01:35:35.087Z,8.97
2023-04-10T01:38:03.861Z,8.98
2023-04-10T01:40:32.844Z,8.96
2023-04-10T01:43:04.305Z,8.95
2023-04-10T01:45:44.234Z,8.93
2023-04-10T01:48:12.867Z,8.91
2023-04-10T01:50:42.350Z,8.89
2023-04-10T01:53:11.405Z,8.89
2023-04-10T01:55:41.098Z,8.88
2023-04-10T01:58:11.299Z,8.86
2023-04-10T02:00:42.206Z,8.85
2023-04-10T02:03:11.803Z,8.84
2023-04-10T02:05:49.274Z,8.85
2023-04-10T02:08:20.063Z,8.85
2023-04-10T02:10:52.484Z,8.85
2023-04-10T02:13:21.846Z,8.85
2023-04-10T02:15:52.787Z,8.85
2023-04-10T02:18:22.435Z,8.84
2023-04-10T02:20:51.344Z,8.84
2023-04-10T02:23:20.942Z,8.84
2023-04-10T02:25:50.183Z,8.85
2023-04-10T03:18:55.321Z,8.42
2023-04-10T03:21:29.026Z,8.39
2023-04-10T03:23:58.393Z,8.40
2023-04-10T03:26:28.827Z,8.41
2023-04-10T03:28:59.437Z,8.43
2023-04-10T03:31:28.423Z,8.45
2023-04-10T03:33:59.583Z,8.47
2023-04-10T03:36:28.767Z,8.49
2023-04-10T03:38:57.840Z,8.51
2023-04-10T03:41:27.664Z,8.54
2023-04-10T03:43:57.184Z,8.55
2023-04-10T03:46:26.496Z,8.57
2023-04-10T03:48:55.771Z,8.60
2023-04-10T03:51:25.020Z,8.61
2023-04-10T03:53:54.256Z,8.62
2023-04-10T03:56:23.919Z,8.64
2023-04-10T03:58:55.865Z,8.67
2023-04-10T04:01:26.714Z,8.69
2023-04-10T04:04:02.362Z,8.70
2023-04-10T04:06:52.983Z,8.72
2023-04-10T04:09:48.390Z,8.73
2023-04-10T04:12:42.607Z,8.72
2023-04-10T04:15:25.451Z,8.73
2023-04-10T04:18:16.939Z,8.73
2023-04-10T04:20:53.505Z,8.72
2023-04-10T04:23:43.695Z,8.71
2023-04-10T04:26:25.503Z,8.72
2023-04-10T04:29:17.204Z,8.73
2023-04-10T04:32:02.432Z,8.74
2023-04-10T04:34:56.935Z,8.75
2023-04-10T04:37:53.498Z,8.77
2023-04-10T04:40:49.703Z,8.81
2023-04-10T04:43:49.827Z,8.83
2023-04-10T04:46:37.807Z,8.86
2023-04-10T04:49:25.261Z,8.89
2023-04-10T04:52:24.199Z,8.92
2023-04-10T04:55:12.066Z,8.97
2023-04-10T04:58:04.525Z,9.01
2023-04-10T05:00:48.830Z,9.02
2023-04-10T05:03:48.058Z,9.03
2023-04-10T05:06:36.454Z,9.04
2023-04-10T05:09:44.223Z,9.07
2023-04-10T05:12:34.895Z,9.09
2023-04-10T05:15:40.241Z,9.12
2023-04-10T05:18:24.066Z,9.13
2023-04-10T05:21:05.675Z,9.16
2023-04-10T05:24:02.276Z,9.19
2023-04-10T05:26:52.167Z,9.22
2023-04-10T05:29:47.356Z,9.26
2023-04-10T05:32:35.436Z,9.28
2023-04-10T05:35:24.148Z,9.27
2023-04-10T05:38:04.653Z,9.26
2023-04-10T05:40:56.995Z,9.28
2023-04-10T05:43:58.111Z,9.32
2023-04-10T05:46:48.572Z,9.35
2023-04-10T05:49:29.482Z,9.38
2023-04-10T05:52:10.702Z,9.40
2023-04-10T05:54:52.700Z,9.42
2023-04-10T05:57:56.564Z,9.47
2023-04-10T06:00:35.477Z,9.50
2023-04-10T06:03:24.569Z,9.51
2023-04-10T06:05:58.337Z,9.52
2023-04-10T06:08:27.855Z,9.53
2023-04-10T06:10:58.213Z,9.55
2023-04-10T06:13:28.058Z,9.57
2023-04-10T06:16:01.600Z,9.59
2023-04-10T06:18:31.639Z,9.62
2023-04-10T06:21:02.562Z,9.66
2023-04-10T06:23:45.788Z,9.71
2023-04-10T06:26:16.030Z,9.75
2023-04-10T06:28:45.545Z,9.78
2023-04-10T06:31:22.662Z,9.79
2023-04-10T06:33:52.641Z,9.79
2023-04-10T06:36:22.373Z,9.77
2023-04-10T06:39:00.140Z,9.76
2023-04-10T06:41:30.356Z,9.76
2023-04-10T06:44:09.604Z,9.77
2023-04-10T06:46:39.452Z,9.80
2023-04-10T06:49:08.788Z,9.85
2023-04-10T06:51:38.566Z,9.89
2023-04-10T06:54:07.585Z,9.92
2023-04-10T06:56:36.918Z,9.93
2023-04-10T06:59:07.115Z,9.92
2023-04-10T07:01:37.102Z,9.89
2023-04-10T07:04:06.337Z,9.87
2023-04-10T07:06:40.272Z,9.81
2023-04-10T07:09:11.137Z,9.74
2023-04-10T07:11:40.648Z,9.71
2023-04-10T07:14:09.624Z,9.70
2023-04-10T07:16:38.731Z,9.70
2023-04-10T07:19:09.351Z,9.70
2023-04-10T07:21:38.615Z,9.68
2023-04-10T07:24:10.133Z,9.65
2023-04-10T07:26:40.087Z,9.65
2023-04-10T07:29:09.985Z,9.66
2023-04-10T07:31:41.247Z,9.68
2023-04-10T07:34:13.406Z,9.71
2023-04-10T07:36:43.940Z,9.73
2023-04-10T07:39:14.981Z,9.75
2023-04-10T07:41:44.427Z,9.79
2023-04-10T07:44:20.957Z,9.85
2023-04-10T07:46:51.060Z,9.94
2023-04-10T07:49:20.331Z,10.01
2023-04-10T07:51:49.409Z,10.07
2023-04-10T07:54:18.902Z,10.12
2023-04-10T07:56:47.983Z,10.13
2023-04-10T07:59:17.083Z,10.13
2023-04-10T08:01:46.419Z,10.11
2023-04-10T08:04:16.863Z,10.14
2023-04-10T08:06:46.572Z,10.16
2023-04-10T08:09:16.088Z,10.23
2023-04-10T08:11:48.236Z,10.39
2023-04-10T08:14:18.256Z,10.58
2023-04-10T08:16:55.137Z,10.70
2023-04-10T08:19:25.044Z,10.72
2023-04-10T08:21:54.222Z,10.67
2023-04-10T08:24:26.760Z,10.64
2023-04-10T08:27:16.820Z,10.61
2023-04-10T08:29:47.164Z,10.61
2023-04-10T08:32:16.364Z,10.65
2023-04-10T08:34:45.607Z,10.73
2023-04-10T08:37:16.681Z,10.93
2023-04-10T08:39:46.286Z,11.22
2023-04-10T08:42:22.876Z,11.47
2023-04-10T08:44:54.313Z,11.61
2023-04-10T08:47:23.251Z,11.75
2023-04-10T08:49:56.985Z,11.86
2023-04-10T08:52:26.616Z,11.98
2023-04-10T08:54:56.742Z,12.09
2023-04-10T08:57:27.417Z,12.21
2023-04-10T08:59:56.480Z,12.28
2023-04-10T09:02:27.133Z,12.31
2023-04-10T09:04:56.321Z,12.39
2023-04-10T09:07:25.423Z,12.51
2023-04-10T09:10:01.516Z,12.61
2023-04-10T09:12:35.114Z,12.62
2023-04-10T09:15:04.477Z,12.60
2023-04-10T09:17:34.338Z,12.61
2023-04-10T09:20:04.204Z,12.62
2023-04-10T09:22:36.918Z,12.66
2023-04-10T09:25:36.216Z,12.64
2023-04-10T09:28:10.359Z,12.54
2023-04-10T09:30:41.227Z,12.49
2023-04-10T09:33:30.702Z,12.46
2023-04-10T09:36:04.721Z,12.43
2023-04-10T09:38:35.274Z,12.38
2023-04-10T09:41:09.004Z,12.29
2023-04-10T09:43:39.662Z,12.25
2023-04-10T09:46:29.317Z,12.19
2023-04-10T09:48:59.916Z,12.12
2023-04-10T09:51:31.614Z,12.07
2023-04-10T09:54:01.458Z,12.06
2023-04-10T09:56:31.072Z,12.07
2023-04-10T09:59:01.726Z,12.13
2023-04-10T10:01:35.282Z,12.20
2023-04-10T10:04:05.057Z,12.30
2023-04-10T10:06:35.110Z,12.42
2023-04-10T10:09:06.750Z,12.53
2023-04-10T10:11:36.233Z,12.59
2023-04-10T10:14:09.950Z,12.59
2023-04-10T10:16:44.715Z,12.56
2023-04-10T10:19:53.457Z,12.54
2023-04-10T10:22:26.585Z,12.54
2023-04-10T10:24:57.404Z,12.53
2023-04-10T10:27:27.948Z,12.55
2023-04-10T10:30:20.250Z,12.59
2023-04-10T10:32:55.013Z,12.68
2023-04-10T10:35:27.965Z,12.78
2023-04-10T10:38:05.036Z,12.89
2023-04-10T10:40:39.489Z,12.97
2023-04-10T10:43:12.729Z,13.02
2023-04-10T10:45:47.577Z,13.04
2023-04-10T10:48:17.234Z,13.05
2023-04-10T10:50:58.625Z,13.04
2023-04-10T10:53:44.527Z,13.04
2023-04-10T10:56:24.469Z,13.10
2023-04-10T10:58:57.969Z,13.20
2023-04-10T11:01:27.908Z,13.29
2023-04-10T11:04:00.540Z,13.34
2023-04-10T11:06:59.207Z,13.36
2023-04-10T11:09:52.287Z,13.38
2023-04-10T11:12:24.050Z,13.32
2023-04-10T11:15:00.450Z,13.29
2023-04-10T11:17:52.853Z,13.34
2023-04-10T11:20:29.202Z,13.39
2023-04-10T11:23:08.897Z,13.49
2023-04-10T11:25:54.365Z,13.54
2023-04-10T11:28:36.909Z,13.52
2023-04-10T11:31:23.076Z,13.55
2023-04-10T11:34:01.840Z,13.67
2023-04-10T11:36:31.216Z,13.78
2023-04-10T11:39:03.245Z,13.88
2023-04-10T11:41:33.820Z,13.99
2023-04-10T11:44:04.486Z,14.07
2023-04-10T11:46:37.496Z,14.15
2023-04-10T11:49:07.534Z,14.24
2023-04-10T11:51:41.189Z,14.29
2023-04-10T11:54:15.094Z,14.29
2023-04-10T11:56:47.696Z,14.27
2023-04-10T11:59:20.149Z,14.24
2023-04-10T12:01:49.409Z,14.22
2023-04-10T12:04:19.269Z,14.20
2023-04-10T12:06:52.957Z,14.17
2023-04-10T12:09:21.733Z,14.18
2023-04-10T12:11:53.372Z,14.18
2023-04-10T12:14:24.608Z,14.16
2023-04-10T12:16:54.350Z,14.13
2023-04-10T12:19:24.027Z,14.12
2023-04-10T12:21:52.871Z,14.07
2023-04-10T12:24:41.880Z,14.04
2023-04-10T12:27:23.877Z,13.96
2023-04-10T12:29:54.027Z,13.87
2023-04-10T12:32:23.319Z,13.79
2023-04-10T12:35:01.701Z,13.71
2023-04-10T12:38:06.991Z,13.70
2023-04-10T12:40:38.823Z,13.74
2023-04-10T12:43:07.821Z,13.76
2023-04-10T12:45:44.892Z,13.76
2023-04-10T12:48:14.091Z,13.74
2023-04-10T12:50:48.328Z,13.74
2023-04-10T12:53:17.485Z,13.83
2023-04-10T12:55:59.783Z,13.96
2023-04-10T12:58:31.543Z,14.07
2023-04-10T13:01:06.328Z,14.19
2023-04-10T13:03:36.956Z,14.33
2023-04-10T13:06:08.371Z,14.44
2023-04-10T13:08:37.507Z,14.49
2023-04-10T13:11:08.761Z,14.51
2023-04-10T13:13:39.566Z,14.49
2023-04-10T13:16:13.033Z,14.46
2023-04-10T13:18:42.573Z,14.41
2023-04-10T13:21:11.531Z,14.41
2023-04-10T13:23:42.905Z,14.40
2023-04-10T13:26:11.944Z,14.39
2023-04-10T13:28:40.807Z,14.38
2023-04-10T13:31:09.892Z,14.36
2023-04-10T13:33:38.993Z,14.36
2023-04-10T13:36:10.050Z,14.29
2023-04-10T13:38:38.973Z,14.21
2023-04-10T13:41:07.864Z,14.20
2023-04-10T13:43:37.906Z,14.27
2023-04-10T13:46:06.974Z,14.32
2023-04-10T13:48:41.616Z,14.34
2023-04-10T13:51:10.745Z,14.33
2023-04-10T13:53:42.571Z,14.31
2023-04-10T13:56:11.739Z,14.25
2023-04-10T13:58:40.511Z,14.19
2023-04-10T14:01:12.883Z,14.12
2023-04-10T14:03:42.804Z,14.06
2023-04-10T14:06:11.856Z,14.06
2023-04-10T14:08:41.897Z,14.05
2023-04-10T14:11:10.967Z,14.03
2023-04-10T14:13:39.836Z,14.02
2023-04-10T14:16:08.934Z,13.98
2023-04-10T14:18:37.844Z,13.93
2023-04-10T14:21:09.438Z,13.89
2023-04-10T14:23:41.498Z,13.84
2023-04-10T14:26:10.325Z,13.78
2023-04-10T14:28:39.688Z,13.73
2023-04-10T14:31:08.633Z,13.67
2023-04-10T14:33:38.803Z,13.61
2023-04-10T14:36:08.528Z,13.53
2023-04-10T14:38:37.331Z,13.45
2023-04-10T14:41:06.624Z,13.36
2023-04-10T14:43:35.347Z,13.28
2023-04-10T14:46:04.752Z,13.21
2023-04-10T14:48:33.933Z,13.13
2023-04-10T14:51:04.929Z,13.05
2023-04-10T14:53:36.081Z,12.99
2023-04-10T14:56:11.599Z,12.96
2023-04-10T14:58:41.118Z,12.93
2023-04-10T15:01:13.573Z,12.93
2023-04-10T15:03:42.961Z,12.94
2023-04-10T15:06:12.781Z,12.96
2023-04-10T15:08:41.659Z,12.97
2023-04-10T15:11:10.534Z,12.98
2023-04-10T15:13:40.725Z,12.97
2023-04-10T15:16:09.497Z,12.96
2023-04-10T15:18:38.226Z,12.95
2023-04-10T15:21:08.311Z,12.93
2023-04-10T15:23:37.057Z,12.91
2023-04-10T15:26:06.068Z,12.89
2023-04-10T15:28:37.312Z,12.88
2023-04-10T15:31:06.514Z,12.87
2023-04-10T15:33:52.483Z,12.85
2023-04-10T15:36:22.937Z,12.82
2023-04-10T15:38:59.085Z,12.79
2023-04-10T15:41:28.495Z,12.76
2023-04-10T15:43:57.727Z,12.73
2023-04-10T15:46:27.411Z,12.71
2023-04-10T15:48:56.416Z,12.70
2023-04-10T15:51:27.483Z,12.67
2023-04-10T15:53:56.530Z,12.65
2023-04-10T15:56:25.784Z,12.62
2023-04-10T15:58:56.658Z,12.59
2023-04-10T16:01:26.143Z,12.56
2023-04-10T16:04:04.700Z,12.54
2023-04-10T16:06:34.505Z,12.54
2023-04-10T16:09:07.828Z,12.53
2023-04-10T16:11:42.062Z,12.53
2023-04-10T16:14:11.244Z,12.52
2023-04-10T16:16:40.318Z,12.50
2023-04-10T16:19:10.290Z,12.46
2023-04-10T16:21:39.913Z,12.42
2023-04-10T16:24:08.988Z,12.37
2023-04-10T16:26:43.709Z,12.32
2023-04-10T16:29:12.751Z,12.25
2023-04-10T16:31:41.791Z,12.18
2023-04-10T16:34:10.758Z,12.08
2023-04-10T16:36:40.524Z,11.98
2023-04-10T16:39:09.447Z,11.84
2023-04-10T16:41:38.853Z,11.72
2023-04-10T16:44:07.822Z,11.59
2023-04-10T16:46:36.978Z,11.45
2023-04-10T16:49:06.052Z,11.32
2023-04-10T16:51:34.903Z,11.21
2023-04-10T16:54:04.390Z,11.10
2023-04-10T16:56:33.757Z,10.99
2023-04-10T16:59:05.287Z,10.87
2023-04-10T17:01:40.048Z,10.77
2023-04-10T17:04:09.699Z,10.66
2023-04-10T17:06:40.547Z,10.55
2023-04-10T17:09:09.972Z,10.45
2023-04-10T17:11:39.204Z,10.36
2023-04-10T17:14:08.540Z,10.27
2023-04-10T17:16:37.604Z,10.20
2023-04-10T17:19:06.860Z,10.13
2023-04-10T17:21:36.164Z,10.06
2023-04-10T17:24:10.702Z,10.01
2023-04-10T17:26:40.421Z,9.96
2023-04-10T17:29:09.383Z,9.92
2023-04-10T17:31:38.505Z,9.88
2023-04-10T17:34:07.649Z,9.85
2023-04-10T17:36:39.230Z,9.82
2023-04-10T17:39:08.018Z,9.80
2023-04-10T17:41:37.065Z,9.77
2023-04-10T17:44:06.612Z,9.77
2023-04-10T17:46:35.710Z,9.77
2023-04-10T17:49:07.428Z,9.78
2023-04-10T17:51:40.523Z,9.77
2023-04-10T17:54:09.628Z,9.78
2023-04-10T17:56:38.849Z,9.80
2023-04-10T17:59:11.626Z,9.82
2023-04-10T18:01:41.238Z,9.83
2023-04-10T18:04:10.411Z,9.85
2023-04-10T18:06:41.224Z,9.87
2023-04-10T18:09:10.042Z,9.89
2023-04-10T18:11:40.355Z,9.90
2023-04-10T18:14:18.649Z,9.90
2023-04-10T18:16:49.297Z,9.88
2023-04-10T18:19:18.089Z,9.86
2023-04-10T18:21:50.544Z,9.83
2023-04-10T18:24:19.276Z,9.81
2023-04-10T18:26:49.677Z,9.77
2023-04-10T18:29:18.488Z,9.74
2023-04-10T18:31:48.120Z,9.71
2023-04-10T18:34:16.999Z,9.68
2023-04-10T18:36:47.003Z,9.65
2023-04-10T18:39:15.792Z,9.61
2023-04-10T18:41:45.700Z,9.56
2023-04-10T18:44:14.572Z,9.54
2023-04-10T18:46:48.624Z,9.52
2023-04-10T18:49:22.861Z,9.50
2023-04-10T18:51:51.854Z,9.48
2023-04-10T18:54:20.807Z,9.47
2023-04-10T18:56:49.708Z,9.47
2023-04-10T18:59:18.717Z,9.47
2023-04-10T19:01:48.423Z,9.46
2023-04-10T19:04:17.392Z,9.45
2023-04-10T19:06:47.260Z,9.44
2023-04-10T19:09:16.012Z,9.41
2023-04-10T19:11:45.096Z,9.38
2023-04-10T19:14:15.864Z,9.36
2023-04-10T19:16:44.910Z,9.32
2023-04-10T19:19:14.220Z,9.29
2023-04-10T19:21:51.154Z,9.24
2023-04-10T19:24:20.037Z,9.19
2023-04-10T19:26:48.907Z,9.14
2023-04-10T19:29:21.858Z,9.09
2023-04-10T19:31:51.733Z,9.04
2023-04-10T19:34:21.961Z,8.98
2023-04-10T19:36:51.549Z,8.94
2023-04-10T19:39:20.425Z,8.90
2023-04-10T19:41:49.321Z,8.85
2023-04-10T19:44:18.698Z,8.79
2023-04-10T19:46:55.196Z,8.74
2023-04-10T19:49:27.216Z,8.69
2023-04-10T19:51:57.873Z,8.64
2023-04-10T19:54:26.544Z,8.61
2023-04-10T19:56:57.988Z,8.57
2023-04-10T19:59:27.041Z,8.55
2023-04-10T20:01:56.694Z,8.52
2023-04-10T20:04:25.832Z,8.48
2023-04-10T20:06:58.276Z,8.45
2023-04-10T20:09:27.255Z,8.41
2023-04-10T20:11:57.694Z,8.38
2023-04-10T20:14:30.227Z,8.35
2023-04-10T20:16:59.669Z,8.32
2023-04-10T20:19:28.580Z,8.29
2023-04-10T20:22:01.522Z,8.26
2023-04-10T20:24:31.588Z,8.22
2023-04-10T20:27:00.503Z,8.20
2023-04-10T20:29:29.650Z,8.16
2023-04-10T20:31:58.652Z,8.11
2023-04-10T20:34:28.211Z,8.06
2023-04-10T20:36:58.317Z,8.01
2023-04-10T20:39:27.291Z,7.97
2023-04-10T20:41:57.474Z,7.93
2023-04-10T20:44:27.322Z,7.88
2023-04-10T20:46:56.347Z,7.83
2023-04-10T20:49:25.555Z,7.78
2023-04-10T20:51:54.355Z,7.73
2023-04-10T20:54:24.371Z,7.68
2023-04-10T20:56:54.224Z,7.64
2023-04-10T20:59:23.175Z,7.59
2023-04-10T21:01:53.091Z,7.55
2023-04-10T21:04:22.803Z,7.50
2023-04-10T21:06:51.849Z,7.43
2023-04-10T21:09:22.244Z,7.38
2023-04-10T21:11:51.225Z,7.34
2023-04-10T21:14:20.300Z,7.30
2023-04-10T21:16:49.899Z,7.26
2023-04-10T21:19:19.219Z,7.24
2023-04-10T21:21:51.608Z,7.19
2023-04-10T21:24:20.506Z,7.15
2023-04-10T21:26:49.612Z,7.11
2023-04-10T21:29:19.312Z,7.07
2023-04-10T21:31:50.470Z,7.03
2023-04-10T21:34:28.578Z,6.98
2023-04-10T21:36:57.746Z,6.93
2023-04-10T21:39:26.844Z,6.89
2023-04-10T21:41:55.860Z,6.84
2023-04-10T21:44:24.760Z,6.80
2023-04-10T21:46:54.424Z,6.76
2023-04-10T21:49:23.804Z,6.72
2023-04-10T21:51:53.014Z,6.67
2023-04-10T21:54:22.152Z,6.60
2023-04-10T21:56:51.327Z,6.54
2023-04-10T21:59:21.317Z,6.47
2023-04-10T22:01:50.614Z,6.41
2023-04-10T22:04:19.830Z,6.36
2023-04-10T22:06:49.076Z,6.32
2023-04-10T22:09:18.381Z,6.27
2023-04-10T22:11:47.305Z,6.24
2023-04-10T22:14:20.767Z,6.18
2023-04-10T22:16:50.766Z,6.14
2023-04-10T22:19:20.120Z,6.10
2023-04-10T22:21:52.505Z,6.07
2023-04-10T22:24:21.569Z,6.05
2023-04-10T22:26:50.498Z,6.04
2023-04-10T22:29:19.739Z,6.02
2023-04-10T22:31:49.163Z,6.00
2023-04-10T22:34:18.209Z,5.99
2023-04-10T22:36:47.257Z,5.97
2023-04-10T22:39:16.279Z,5.97
2023-04-10T22:41:45.756Z,5.95
2023-04-10T22:44:15.493Z,5.94
2023-04-10T22:46:49.793Z,5.92
2023-04-10T22:49:20.035Z,5.89
2023-04-10T22:51:49.325Z,5.87
2023-04-10T22:54:18.646Z,5.86
2023-04-10T22:56:49.241Z,5.86
2023-04-10T22:59:19.258Z,5.85
2023-04-10T23:01:48.330Z,5.84
2023-04-10T23:04:17.492Z,5.84
2023-04-10T23:06:47.228Z,5.83
2023-04-10T23:09:17.084Z,5.82
2023-04-10T23:11:48.252Z,5.80
2023-04-10T23:14:17.708Z,5.78
2023-04-10T23:16:47.679Z,5.75
2023-04-10T23:19:16.500Z,5.73
2023-04-10T23:21:45.961Z,5.71
2023-04-10T23:24:15.891Z,5.68
2023-04-10T23:26:44.774Z,5.67
2023-04-10T23:29:15.803Z,5.64
2023-04-10T23:31:44.914Z,5.63
2023-04-10T23:34:22.765Z,5.61
2023-04-10T23:36:51.848Z,5.60
2023-04-10T23:39:20.720Z,5.59
2023-04-10T23:41:57.539Z,5.58
2023-04-10T23:44:26.736Z,5.57
2023-04-10T23:46:56.530Z,5.56
2023-04-10T23:49:25.804Z,5.57
2023-04-10T23:51:55.091Z,5.55
2023-04-10T23:54:33.324Z,5.56
2023-04-10T23:57:03.017Z,5.55
2023-04-10T23:59:32.230Z,5.54
